logo
Search for airport 
image banner adimage banner adimage banner ad
image banner ad

YSAN - Sandstone Airport

Located in Sandstone, Australia

ICAO - YSAN, IATA - NDS

Data provided by Airmate  

General information

Coordinates: S27°58'49" E119°17'49"
Elevation is 1727 feet MSL.
Magnetic variation is 1° East
View others Airports in Western Australia

Operational data

Special qualification required
Current time UTC:
Current local time:
Weather at : - ( 0 km )
METAR: KUNV 162053Z 29011G16KT 10SM SCT050 34/17 A2982
View NOTAMs / SUP AIP / TFR affecting this airport [VIEW]
Communications frequencies: [VIEW]

Runways:

RWY identifierQFULength (ft)Width (ft)SurfaceLDA (ft)
18180°4505262DIRT
364505262DIRT
0992°4134259DIRT
27272°4134259DIRT

Airport contact information

Address: Sandstone Australia

Satellite view of YSAN